createdAt,value
2019-04-25T00:01:36.529Z,17.00
2019-04-25T00:04:05.547Z,16.90
2019-04-25T00:06:37.086Z,16.90
2019-04-25T00:09:11.845Z,16.90
2019-04-25T00:11:43.105Z,16.80
2019-04-25T00:14:13.232Z,16.80
2019-04-25T00:16:44.143Z,16.70
2019-04-25T00:19:13.253Z,16.70
2019-04-25T00:21:51.423Z,16.60
2019-04-25T00:24:29.192Z,16.60
2019-04-25T00:26:57.956Z,16.50
2019-04-25T00:29:26.785Z,16.50
2019-04-25T00:31:55.598Z,16.40
2019-04-25T00:34:24.608Z,16.40
2019-04-25T00:36:53.669Z,16.40
2019-04-25T00:39:22.800Z,16.30
2019-04-25T00:41:52.067Z,16.30
2019-04-25T00:44:21.950Z,16.30
2019-04-25T00:46:56.126Z,16.20
2019-04-25T00:49:22.000Z,16.20
2019-04-25T00:51:52.350Z,16.20
2019-04-25T00:54:22.645Z,16.10
2019-04-25T00:56:52.745Z,16.10
2019-04-25T00:59:32.440Z,16.00
2019-04-25T01:02:14.351Z,15.90
2019-04-25T01:04:43.886Z,15.90
2019-04-25T01:07:12.968Z,15.70
2019-04-25T01:09:42.329Z,15.70
2019-04-25T01:12:12.808Z,15.70
2019-04-25T01:14:42.022Z,15.70
2019-04-25T01:17:11.661Z,15.60
2019-04-25T01:19:40.548Z,15.50
2019-04-25T01:22:09.652Z,15.40
2019-04-25T01:24:38.540Z,15.40
2019-04-25T01:27:07.846Z,15.30
2019-04-25T01:29:36.576Z,15.20
2019-04-25T01:32:06.416Z,15.20
2019-04-25T01:34:47.122Z,15.10
2019-04-25T01:37:30.664Z,15.10
2019-04-25T01:40:15.463Z,15.00
2019-04-25T01:42:54.775Z,14.90
2019-04-25T01:45:26.230Z,14.80
2019-04-25T01:47:55.234Z,14.70
2019-04-25T01:50:24.912Z,14.60
2019-04-25T01:52:54.748Z,14.60
2019-04-25T01:55:24.495Z,14.50
2019-04-25T01:57:54.803Z,14.40
2019-04-25T02:00:33.353Z,14.30
2019-04-25T02:03:04.473Z,14.10
2019-04-25T02:05:33.789Z,14.00
2019-04-25T02:08:05.796Z,13.90
2019-04-25T02:10:34.437Z,13.80
2019-04-25T02:13:05.192Z,13.60
2019-04-25T02:15:33.975Z,13.60
2019-04-25T02:18:03.807Z,13.60
2019-04-25T02:20:33.907Z,13.50
2019-04-25T02:23:04.167Z,13.40
2019-04-25T02:25:33.316Z,13.20
2019-04-25T02:28:03.166Z,13.10
2019-04-25T02:30:35.337Z,13.00
2019-04-25T02:33:09.017Z,12.90
2019-04-25T02:35:34.997Z,12.90
2019-04-25T02:38:08.530Z,12.80
2019-04-25T02:40:34.483Z,12.70
2019-04-25T02:43:07.672Z,12.70
2019-04-25T02:46:08.323Z,12.60
2019-04-25T02:48:57.931Z,12.60
2019-04-25T02:51:34.987Z,12.50
2019-04-25T02:54:06.743Z,12.40
2019-04-25T02:56:38.455Z,12.40
2019-04-25T02:59:08.462Z,12.40
2019-04-25T03:01:35.670Z,12.40
2019-04-25T03:04:08.598Z,12.40
2019-04-25T03:06:35.311Z,12.30
2019-04-25T03:09:09.512Z,12.30
2019-04-25T03:11:37.584Z,12.20
2019-04-25T03:14:08.695Z,12.30
2019-04-25T03:16:37.097Z,12.20
2019-04-25T03:19:24.422Z,12.10
2019-04-25T03:21:55.388Z,12.10
2019-04-25T03:24:25.128Z,12.10
2019-04-25T03:26:54.339Z,12.00
2019-04-25T03:29:24.780Z,12.00
2019-04-25T03:31:55.987Z,11.90
2019-04-25T03:34:25.366Z,11.80
2019-04-25T03:36:54.399Z,11.80
2019-04-25T03:39:24.177Z,11.70
2019-04-25T03:41:54.350Z,11.70
2019-04-25T03:44:23.714Z,11.60
2019-04-25T03:46:53.759Z,11.50
2019-04-25T03:49:23.841Z,11.50
2019-04-25T03:51:53.858Z,11.50
2019-04-25T03:54:23.582Z,11.40
2019-04-25T03:56:55.918Z,11.30
2019-04-25T03:59:23.640Z,11.20
2019-04-25T04:01:53.747Z,11.10
2019-04-25T04:04:23.723Z,11.10
2019-04-25T04:06:53.719Z,11.10
2019-04-25T04:09:24.022Z,11.00
2019-04-25T04:11:53.479Z,10.90
2019-04-25T04:14:23.915Z,10.90
2019-04-25T04:17:10.904Z,10.80
2019-04-25T04:19:47.721Z,10.80
2019-04-25T04:22:29.136Z,10.70
2019-04-25T04:24:59.344Z,10.70
2019-04-25T04:27:28.182Z,10.70
2019-04-25T04:29:57.203Z,10.70
2019-04-25T04:32:26.156Z,10.70
2019-04-25T04:34:54.958Z,10.70
2019-04-25T04:37:23.997Z,10.80
2019-04-25T04:39:53.606Z,10.80
2019-04-25T04:42:23.695Z,10.90
2019-04-25T04:44:53.429Z,10.90
2019-04-25T04:47:23.616Z,11.00
2019-04-25T04:49:54.043Z,11.10
2019-04-25T04:52:25.203Z,11.20
2019-04-25T04:55:03.800Z,11.20
2019-04-25T04:57:32.267Z,11.20
2019-04-25T04:59:54.614Z,11.30
2019-04-25T05:02:45.593Z,11.40
2019-04-25T05:05:38.051Z,11.60
2019-04-25T05:08:14.263Z,11.70
2019-04-25T05:10:43.285Z,11.70
2019-04-25T05:13:12.283Z,11.90
2019-04-25T05:15:41.352Z,12.00
2019-04-25T05:18:10.131Z,12.00
2019-04-25T05:20:38.899Z,12.20
2019-04-25T05:23:08.979Z,12.40
2019-04-25T05:25:37.863Z,12.50
2019-04-25T05:28:06.618Z,12.70
2019-04-25T05:30:43.575Z,12.90
2019-04-25T05:33:14.456Z,13.10
2019-04-25T05:35:44.048Z,13.20
2019-04-25T05:38:14.243Z,13.40
2019-04-25T05:40:53.960Z,13.50
2019-04-25T05:43:24.473Z,13.60
2019-04-25T05:45:54.130Z,13.90
2019-04-25T05:48:25.040Z,14.20
2019-04-25T05:50:54.007Z,14.40
2019-04-25T05:53:24.161Z,14.70
2019-04-25T05:55:54.099Z,14.90
2019-04-25T05:58:25.459Z,15.10
2019-04-25T06:00:55.064Z,15.30
2019-04-25T06:03:25.390Z,15.50
2019-04-25T06:05:54.408Z,15.60
2019-04-25T06:08:26.457Z,15.70
2019-04-25T06:11:04.483Z,15.90
2019-04-25T06:13:47.112Z,16.10
2019-04-25T06:16:24.244Z,16.30
2019-04-25T06:19:30.518Z,16.40
2019-04-25T06:21:59.643Z,16.50
2019-04-25T06:24:39.947Z,16.50
2019-04-25T06:27:28.493Z,16.70
2019-04-25T06:30:04.373Z,16.90
2019-04-25T06:32:35.302Z,17.20
2019-04-25T06:35:04.531Z,17.10
2019-04-25T06:37:33.995Z,17.20
2019-04-25T06:40:05.604Z,17.50
2019-04-25T06:42:34.979Z,17.40
2019-04-25T06:45:13.535Z,17.50
2019-04-25T06:48:01.572Z,17.80
2019-04-25T06:50:30.383Z,18.10
2019-04-25T06:52:59.222Z,18.20
2019-04-25T06:55:28.449Z,18.30
2019-04-25T06:58:09.306Z,18.50
2019-04-25T07:00:29.740Z,19.00
2019-04-25T07:02:58.804Z,19.80
2019-04-25T07:05:33.848Z,20.50
2019-04-25T07:07:58.250Z,21.90
2019-04-25T07:10:27.517Z,22.60
2019-04-25T07:12:56.692Z,23.20
2019-04-25T07:15:26.952Z,24.00
2019-04-25T07:17:56.266Z,24.50
2019-04-25T07:20:27.041Z,24.90
2019-04-25T07:22:55.657Z,25.60
2019-04-25T07:25:27.285Z,25.60
2019-04-25T07:28:29.068Z,25.30
2019-04-25T07:31:18.638Z,26.20
2019-04-25T07:33:53.219Z,26.50
2019-04-25T07:36:23.269Z,27.10
2019-04-25T07:39:05.472Z,27.50
2019-04-25T07:41:24.205Z,28.30
2019-04-25T07:43:53.519Z,28.20
2019-04-25T07:46:23.376Z,27.50
2019-04-25T07:48:53.547Z,26.60
2019-04-25T07:51:23.725Z,26.80
2019-04-25T07:53:53.485Z,27.00
2019-04-25T07:56:24.058Z,27.30
2019-04-25T07:58:54.761Z,27.70
2019-04-25T08:01:23.924Z,27.30
2019-04-25T08:03:53.755Z,27.40
2019-04-25T08:06:24.259Z,27.20
2019-04-25T08:08:54.464Z,27.30
2019-04-25T08:11:23.725Z,28.30
2019-04-25T08:14:17.573Z,28.00
2019-04-25T08:16:49.627Z,27.20
2019-04-25T08:19:19.487Z,28.10
2019-04-25T08:21:49.097Z,27.50
2019-04-25T08:24:17.996Z,27.90
2019-04-25T08:26:46.927Z,28.20
2019-04-25T08:29:15.793Z,28.30
2019-04-25T08:31:45.295Z,28.80
2019-04-25T08:34:14.632Z,28.60
2019-04-25T08:36:45.359Z,29.60
2019-04-25T08:39:14.661Z,29.10
2019-04-25T08:41:45.353Z,28.80
2019-04-25T08:44:14.264Z,28.50
2019-04-25T08:46:44.208Z,28.90
2019-04-25T08:49:38.215Z,29.60
2019-04-25T08:52:07.319Z,29.90
2019-04-25T08:54:49.623Z,28.60
2019-04-25T08:57:27.064Z,28.20
2019-04-25T09:00:08.174Z,28.20
2019-04-25T09:02:43.569Z,27.50
2019-04-25T09:05:35.153Z,27.30
2019-04-25T09:08:04.230Z,27.50
2019-04-25T09:10:35.807Z,27.80
2019-04-25T09:13:04.793Z,28.30
2019-04-25T09:15:36.334Z,28.20
2019-04-25T09:18:04.376Z,29.00
2019-04-25T09:20:38.039Z,29.90
2019-04-25T09:23:04.902Z,30.60
2019-04-25T09:25:35.443Z,30.90
2019-04-25T09:28:04.641Z,30.30
2019-04-25T09:30:34.915Z,30.10
2019-04-25T09:33:04.710Z,29.00
2019-04-25T09:35:33.804Z,30.10
2019-04-25T09:38:03.394Z,30.00
2019-04-25T09:40:34.075Z,29.90
2019-04-25T09:43:03.608Z,29.80
2019-04-25T09:45:47.767Z,29.40
2019-04-25T09:48:24.914Z,30.30
2019-04-25T09:51:05.637Z,30.20
2019-04-25T09:53:38.874Z,29.90
2019-04-25T09:56:29.167Z,29.60
2019-04-25T09:59:09.712Z,29.90
2019-04-25T10:01:40.163Z,29.50
2019-04-25T10:04:09.170Z,30.00
2019-04-25T10:06:38.904Z,29.80
2019-04-25T10:09:08.555Z,29.50
2019-04-25T10:11:38.284Z,29.60
2019-04-25T10:14:31.057Z,29.50
2019-04-25T10:16:59.774Z,30.40
2019-04-25T10:19:28.607Z,30.10
2019-04-25T10:21:57.603Z,30.70
2019-04-25T10:24:26.402Z,30.40
2019-04-25T10:26:55.252Z,29.80
2019-04-25T10:29:24.183Z,29.60
2019-04-25T10:31:55.314Z,30.00
2019-04-25T10:34:24.194Z,29.90
2019-04-25T10:36:53.316Z,29.50
2019-04-25T10:39:22.531Z,29.50
2019-04-25T10:41:51.511Z,30.10
2019-04-25T10:44:20.322Z,29.50
2019-04-25T10:46:49.145Z,29.40
2019-04-25T10:49:17.935Z,29.60
2019-04-25T10:51:46.676Z,30.10
2019-04-25T10:54:15.513Z,30.20
2019-04-25T10:56:45.831Z,30.30
2019-04-25T10:59:14.692Z,30.30
2019-04-25T11:01:45.092Z,30.10
2019-04-25T11:04:23.504Z,29.90
2019-04-25T11:06:52.322Z,29.80
2019-04-25T11:09:25.516Z,29.80
2019-04-25T11:11:54.563Z,30.10
2019-04-25T11:14:23.981Z,29.80
2019-04-25T11:16:54.683Z,29.80
2019-04-25T11:19:23.951Z,29.60
2019-04-25T11:21:53.844Z,29.30
2019-04-25T11:24:23.645Z,28.90
2019-04-25T11:26:55.086Z,28.10
2019-04-25T11:29:24.102Z,27.30
2019-04-25T11:31:53.404Z,27.00
2019-04-25T11:34:22.876Z,26.70
2019-04-25T11:36:51.898Z,26.50
2019-04-25T11:39:42.573Z,26.30
2019-04-25T11:42:14.998Z,26.00
2019-04-25T11:44:45.539Z,25.80
2019-04-25T11:47:15.519Z,25.70
2019-04-25T11:49:46.507Z,25.70
2019-04-25T11:52:26.929Z,25.70
2019-04-25T11:54:46.851Z,25.60
2019-04-25T11:57:16.136Z,25.50
2019-04-25T11:59:47.945Z,25.40
2019-04-25T12:02:16.181Z,25.50
2019-04-25T12:04:46.420Z,25.50
2019-04-25T12:07:15.830Z,25.20
2019-04-25T12:09:46.483Z,25.20
2019-04-25T12:12:15.869Z,25.20
2019-04-25T12:14:45.485Z,25.10
2019-04-25T12:17:15.291Z,25.00
2019-04-25T12:19:44.345Z,25.00
2019-04-25T12:22:13.596Z,25.00
2019-04-25T12:24:44.527Z,25.00
2019-04-25T12:27:13.319Z,25.00
2019-04-25T12:29:43.898Z,25.20
2019-04-25T12:32:14.122Z,25.30
2019-04-25T12:34:43.028Z,25.40
2019-04-25T12:37:11.878Z,25.50
2019-04-25T12:39:40.611Z,25.60
2019-04-25T12:42:09.766Z,25.50
2019-04-25T12:45:06.445Z,25.50
2019-04-25T12:47:37.017Z,25.50
2019-04-25T12:50:05.846Z,25.50
2019-04-25T12:52:34.647Z,25.60
2019-04-25T12:55:04.108Z,25.50
2019-04-25T12:57:32.987Z,25.60
2019-04-25T13:00:01.840Z,25.70
2019-04-25T13:02:33.547Z,25.80
2019-04-25T13:05:01.535Z,25.90
2019-04-25T13:07:30.421Z,26.00
2019-04-25T13:09:59.138Z,26.00
2019-04-25T13:12:28.070Z,26.10
2019-04-25T13:14:57.207Z,26.20
2019-04-25T13:17:26.022Z,26.10
2019-04-25T13:19:56.614Z,26.20
2019-04-25T13:22:25.264Z,26.30
2019-04-25T13:24:55.117Z,26.20
2019-04-25T13:27:33.557Z,26.40
2019-04-25T13:30:19.750Z,26.40
2019-04-25T13:33:00.159Z,26.30
2019-04-25T13:35:33.658Z,26.30
2019-04-25T13:38:02.524Z,26.20
2019-04-25T13:40:31.351Z,26.30
2019-04-25T13:43:00.178Z,26.40
2019-04-25T13:45:29.076Z,26.40
2019-04-25T13:47:58.270Z,26.30
2019-04-25T13:50:27.609Z,26.50
2019-04-25T13:52:56.763Z,26.50
2019-04-25T13:55:25.820Z,26.50
2019-04-25T13:57:54.947Z,26.90
2019-04-25T14:00:26.061Z,27.10
2019-04-25T14:02:55.466Z,27.60
2019-04-25T14:05:26.180Z,27.60
2019-04-25T14:07:55.115Z,27.80
2019-04-25T14:10:25.186Z,27.40
2019-04-25T14:12:55.472Z,26.80
2019-04-25T14:15:25.422Z,26.40
2019-04-25T14:18:19.285Z,26.10
2019-04-25T14:20:55.177Z,25.90
2019-04-25T14:23:24.798Z,25.90
2019-04-25T14:25:54.484Z,26.00
2019-04-25T14:28:24.890Z,26.00
2019-04-25T14:30:53.872Z,26.00
2019-04-25T14:33:25.271Z,26.00
2019-04-25T14:35:54.803Z,26.00
2019-04-25T14:38:26.522Z,25.80
2019-04-25T14:40:55.594Z,25.60
2019-04-25T14:43:24.327Z,25.50
2019-04-25T14:45:55.954Z,25.30
2019-04-25T14:48:24.635Z,25.30
2019-04-25T14:50:53.590Z,25.30
2019-04-25T14:53:23.357Z,25.40
2019-04-25T14:56:09.032Z,25.30
2019-04-25T14:58:39.178Z,25.30
2019-04-25T15:01:08.170Z,25.30
2019-04-25T15:03:37.003Z,25.30
2019-04-25T15:06:05.738Z,25.30
2019-04-25T15:08:34.462Z,25.30
2019-04-25T15:11:03.841Z,25.20
2019-04-25T15:13:32.831Z,25.20
2019-04-25T15:16:01.938Z,25.10
2019-04-25T15:18:36.639Z,25.20
2019-04-25T15:21:03.692Z,25.20
2019-04-25T15:23:32.890Z,25.10
2019-04-25T15:26:01.922Z,25.00
2019-04-25T15:28:30.744Z,25.00
2019-04-25T15:30:59.661Z,25.00
2019-04-25T15:33:28.461Z,24.90
2019-04-25T15:36:10.527Z,25.00
2019-04-25T15:38:53.475Z,25.00
2019-04-25T15:41:53.420Z,25.00
2019-04-25T15:44:40.628Z,25.00
2019-04-25T15:47:12.960Z,25.00
2019-04-25T15:49:42.924Z,25.00
2019-04-25T15:52:11.852Z,24.90
2019-04-25T15:54:40.623Z,24.90
2019-04-25T15:57:09.870Z,24.90
2019-04-25T15:59:38.736Z,24.80
2019-04-25T16:02:09.214Z,24.70
2019-04-25T16:04:38.015Z,24.70
2019-04-25T16:07:08.406Z,24.60
2019-04-25T16:09:39.261Z,24.50
2019-04-25T16:12:09.176Z,24.50
2019-04-25T16:14:38.958Z,24.40
2019-04-25T16:17:08.044Z,24.40
2019-04-25T16:19:36.902Z,24.30
2019-04-25T16:22:05.759Z,24.30
2019-04-25T16:24:34.627Z,24.20
2019-04-25T16:27:05.086Z,24.20
2019-04-25T16:29:33.835Z,24.30
2019-04-25T16:32:04.195Z,24.30
2019-04-25T16:34:32.951Z,24.30
2019-04-25T16:37:01.944Z,24.30
2019-04-25T16:39:33.070Z,24.30
2019-04-25T16:42:01.974Z,24.30
2019-04-25T16:44:31.863Z,24.30
2019-04-25T16:47:00.808Z,24.30
2019-04-25T16:49:29.991Z,24.30
2019-04-25T16:52:09.784Z,24.20
2019-04-25T16:54:38.555Z,24.20
2019-04-25T16:57:07.348Z,24.20
2019-04-25T16:59:36.083Z,24.10
2019-04-25T17:02:05.180Z,24.00
2019-04-25T17:04:34.011Z,24.00
2019-04-25T17:07:02.874Z,23.90
2019-04-25T17:09:31.874Z,23.90
2019-04-25T17:12:00.927Z,24.00
2019-04-25T17:14:37.528Z,23.90
2019-04-25T17:17:30.718Z,23.90
2019-04-25T17:20:14.604Z,23.80
2019-04-25T17:22:43.533Z,23.80
2019-04-25T17:25:12.966Z,23.80
2019-04-25T17:27:41.940Z,23.70
2019-04-25T17:30:12.372Z,23.70
2019-04-25T17:33:15.180Z,23.60
2019-04-25T17:35:52.383Z,23.60
2019-04-25T17:38:27.552Z,23.50
2019-04-25T17:41:05.415Z,23.40
2019-04-25T17:43:34.306Z,23.30
2019-04-25T17:46:07.955Z,23.30
2019-04-25T17:48:36.781Z,23.20
2019-04-25T17:51:05.606Z,23.20
2019-04-25T17:53:34.419Z,23.10
2019-04-25T17:56:03.247Z,23.00
2019-04-25T17:58:32.255Z,23.00
2019-04-25T18:01:02.075Z,22.90
2019-04-25T18:03:30.899Z,22.80
2019-04-25T18:05:59.687Z,22.80
2019-04-25T18:08:28.458Z,22.70
2019-04-25T18:10:57.227Z,22.60
2019-04-25T18:13:26.198Z,22.50
2019-04-25T18:16:02.101Z,22.40
2019-04-25T18:18:52.972Z,22.40
2019-04-25T18:21:21.904Z,22.30
2019-04-25T18:24:15.636Z,22.20
2019-04-25T18:26:48.438Z,22.10
2019-04-25T18:29:17.355Z,22.00
2019-04-25T18:31:46.387Z,21.90
2019-04-25T18:34:44.346Z,21.80
2019-04-25T18:37:20.848Z,21.80
2019-04-25T18:39:58.346Z,21.70
2019-04-25T18:42:44.869Z,21.60
2019-04-25T18:45:16.140Z,21.60
2019-04-25T18:47:44.902Z,21.60
2019-04-25T18:50:16.451Z,21.50
2019-04-25T18:53:10.142Z,21.40
2019-04-25T18:55:45.777Z,21.40
2019-04-25T18:58:27.484Z,21.30
2019-04-25T19:01:08.237Z,21.30
2019-04-25T19:03:56.291Z,21.20
2019-04-25T19:06:25.192Z,21.10
2019-04-25T19:08:54.116Z,21.00
2019-04-25T19:11:23.196Z,21.00
2019-04-25T19:13:52.036Z,20.90
2019-04-25T19:16:21.016Z,20.90
2019-04-25T19:18:49.756Z,20.90
2019-04-25T19:21:18.474Z,20.90
2019-04-25T19:23:48.063Z,20.80
2019-04-25T19:26:16.976Z,20.80
2019-04-25T19:28:45.679Z,20.70
2019-04-25T19:31:14.768Z,20.70
2019-04-25T19:33:43.521Z,20.70
2019-04-25T19:36:12.319Z,20.60
2019-04-25T19:38:41.983Z,20.60
2019-04-25T19:41:25.111Z,20.60
2019-04-25T19:43:57.100Z,20.50
2019-04-25T19:46:38.437Z,20.50
2019-04-25T19:49:07.891Z,20.40
2019-04-25T19:51:36.854Z,20.30
2019-04-25T19:54:05.991Z,20.30
2019-04-25T19:56:34.809Z,20.30
2019-04-25T19:59:03.814Z,20.20
2019-04-25T20:01:32.584Z,20.10
2019-04-25T20:04:20.438Z,20.10
2019-04-25T20:07:06.928Z,20.00
2019-04-25T20:09:54.833Z,19.90
2019-04-25T20:12:24.201Z,20.00
2019-04-25T20:14:53.602Z,19.90
2019-04-25T20:17:22.284Z,19.90
2019-04-25T20:19:51.881Z,19.90
2019-04-25T20:22:20.710Z,19.80
2019-04-25T20:24:50.390Z,19.80
2019-04-25T20:27:19.505Z,19.80
2019-04-25T20:29:48.460Z,19.80
2019-04-25T20:32:17.511Z,19.70
2019-04-25T20:34:47.041Z,19.70
2019-04-25T20:37:16.099Z,19.60
2019-04-25T20:39:45.889Z,19.60
2019-04-25T20:42:14.760Z,19.60
2019-04-25T20:44:43.613Z,19.60
2019-04-25T20:47:12.306Z,19.50
2019-04-25T20:49:41.599Z,19.50
2019-04-25T20:52:10.325Z,19.50
2019-04-25T20:54:39.368Z,19.50
2019-04-25T20:57:08.222Z,19.40
2019-04-25T20:59:37.012Z,19.40
2019-04-25T21:02:06.915Z,19.30
2019-04-25T21:04:42.623Z,19.30
2019-04-25T21:07:11.470Z,19.20
2019-04-25T21:09:40.384Z,19.20
2019-04-25T21:12:09.371Z,19.20
2019-04-25T21:14:50.723Z,19.10
2019-04-25T21:17:38.607Z,19.00
2019-04-25T21:20:07.835Z,18.90
2019-04-25T21:22:36.647Z,18.90
2019-04-25T21:25:05.774Z,18.80
2019-04-25T21:27:34.615Z,18.70
2019-04-25T21:30:04.078Z,18.70
2019-04-25T21:32:52.284Z,18.60
2019-04-25T21:35:22.054Z,18.50
2019-04-25T21:37:51.103Z,18.40
2019-04-25T21:40:36.577Z,18.20
2019-04-25T21:43:12.031Z,18.10
2019-04-25T21:45:41.045Z,17.90
2019-04-25T21:48:10.143Z,17.80
2019-04-25T21:50:39.133Z,17.70
2019-04-25T21:53:08.179Z,17.70
2019-04-25T21:55:37.199Z,17.60
2019-04-25T21:58:06.215Z,17.70
2019-04-25T22:01:01.032Z,17.80
2019-04-25T22:03:30.289Z,17.80
2019-04-25T22:05:59.169Z,17.80
2019-04-25T22:08:27.911Z,17.90
2019-04-25T22:10:57.281Z,18.00
2019-04-25T22:13:26.134Z,18.00
2019-04-25T22:15:55.335Z,18.00
2019-04-25T22:18:25.267Z,18.00
2019-04-25T22:20:53.967Z,17.90
2019-04-25T22:23:22.814Z,17.80
2019-04-25T22:25:51.879Z,17.80
2019-04-25T22:28:20.867Z,17.70
2019-04-25T22:30:53.274Z,17.80
2019-04-25T22:33:31.790Z,17.80
2019-04-25T22:36:08.417Z,18.00
2019-04-25T22:38:37.483Z,17.90
2019-04-25T22:41:06.253Z,18.00
2019-04-25T22:43:36.871Z,18.10
2019-04-25T22:46:05.998Z,18.20
2019-04-25T22:48:50.194Z,18.30
2019-04-25T22:51:19.183Z,18.50
2019-04-25T22:53:48.407Z,18.60
2019-04-25T22:56:17.223Z,18.50
2019-04-25T22:58:46.066Z,18.60
2019-04-25T23:01:37.565Z,18.50
2019-04-25T23:04:11.886Z,18.60
2019-04-25T23:06:41.256Z,18.60
2019-04-25T23:09:10.242Z,18.70
2019-04-25T23:11:39.296Z,18.70
2019-04-25T23:14:08.855Z,18.80
2019-04-25T23:16:37.999Z,18.80
2019-04-25T23:19:07.290Z,18.80
2019-04-25T23:21:36.371Z,18.90
2019-04-25T23:24:05.549Z,18.90
2019-04-25T23:26:59.188Z,19.00
2019-04-25T23:29:28.237Z,18.90
2019-04-25T23:31:57.010Z,19.00
2019-04-25T23:34:26.031Z,19.00
2019-04-25T23:36:55.112Z,19.10
2019-04-25T23:39:24.143Z,19.10
2019-04-25T23:41:53.154Z,19.20
2019-04-25T23:44:22.267Z,19.10
2019-04-25T23:46:51.285Z,19.10
2019-04-25T23:49:20.075Z,19.10
2019-04-25T23:51:49.374Z,19.20
2019-04-25T23:54:18.355Z,19.20
2019-04-25T23:56:47.076Z,19.20
2019-04-25T23:59:16.142Z,19.20
